sensor_id;sensor_type;location;lat;lon;timestamp;P1;durP1;ratioP1;P2;durP2;ratioP2
16075;SDS011;8142;48.242;11.644;2023-06-01T00:01:55;8.73;;;5.03;;
16075;SDS011;8142;48.242;11.644;2023-06-01T00:04:21;9.50;;;5.30;;
16075;SDS011;8142;48.242;11.644;2023-06-01T00:06:47;7.70;;;5.10;;
16075;SDS011;8142;48.242;11.644;2023-06-01T00:09:13;7.17;;;4.70;;
16075;SDS011;8142;48.242;11.644;2023-06-01T00:11:39;8.57;;;4.80;;
16075;SDS011;8142;48.242;11.644;2023-06-01T00:14:04;6.37;;;4.50;;
16075;SDS011;8142;48.242;11.644;2023-06-01T00:16:30;4.73;;;4.03;;
16075;SDS011;8142;48.242;11.644;2023-06-01T00:18:56;7.13;;;4.53;;
16075;SDS011;8142;48.242;11.644;2023-06-01T00:21:26;8.33;;;4.97;;
16075;SDS011;8142;48.242;11.644;2023-06-01T00:23:52;9.43;;;5.40;;
16075;SDS011;8142;48.242;11.644;2023-06-01T00:26:18;8.20;;;5.27;;
16075;SDS011;8142;48.242;11.644;2023-06-01T00:28:44;13.90;;;5.97;;
16075;SDS011;8142;48.242;11.644;2023-06-01T00:31:10;15.67;;;5.83;;
16075;SDS011;8142;48.242;11.644;2023-06-01T00:33:36;17.00;;;6.40;;
16075;SDS011;8142;48.242;11.644;2023-06-01T00:36:02;11.90;;;5.53;;
16075;SDS011;8142;48.242;11.644;2023-06-01T00:38:28;13.73;;;6.13;;
16075;SDS011;8142;48.242;11.644;2023-06-01T00:40:54;9.47;;;5.73;;
16075;SDS011;8142;48.242;11.644;2023-06-01T00:43:19;12.57;;;5.73;;
16075;SDS011;8142;48.242;11.644;2023-06-01T00:45:45;6.33;;;4.37;;
16075;SDS011;8142;48.242;11.644;2023-06-01T00:48:11;7.33;;;4.60;;
16075;SDS011;8142;48.242;11.644;2023-06-01T00:50:39;11.60;;;6.33;;
16075;SDS011;8142;48.242;11.644;2023-06-01T00:53:06;11.10;;;7.20;;
16075;SDS011;8142;48.242;11.644;2023-06-01T00:55:33;14.80;;;7.73;;
16075;SDS011;8142;48.242;11.644;2023-06-01T00:58:00;10.63;;;7.13;;
16075;SDS011;8142;48.242;11.644;2023-06-01T01:00:27;10.20;;;6.57;;
16075;SDS011;8142;48.242;11.644;2023-06-01T01:02:54;9.97;;;6.10;;
16075;SDS011;8142;48.242;11.644;2023-06-01T01:05:25;9.03;;;5.30;;
16075;SDS011;8142;48.242;11.644;2023-06-01T01:13:05;6.80;;;5.47;;
16075;SDS011;8142;48.242;11.644;2023-06-01T01:15:53;7.33;;;4.27;;
16075;SDS011;8142;48.242;11.644;2023-06-01T01:21:26;11.73;;;5.83;;
16075;SDS011;8142;48.242;11.644;2023-06-01T01:29:40;8.80;;;5.83;;
16075;SDS011;8142;48.242;11.644;2023-06-01T01:32:07;8.13;;;5.80;;
16075;SDS011;8142;48.242;11.644;2023-06-01T01:34:34;8.23;;;5.83;;
16075;SDS011;8142;48.242;11.644;2023-06-01T01:37:01;6.73;;;5.47;;
16075;SDS011;8142;48.242;11.644;2023-06-01T01:39:27;7.80;;;5.80;;
16075;SDS011;8142;48.242;11.644;2023-06-01T01:41:53;8.03;;;5.50;;
16075;SDS011;8142;48.242;11.644;2023-06-01T01:44:19;6.83;;;5.10;;
16075;SDS011;8142;48.242;11.644;2023-06-01T01:46:53;6.77;;;4.50;;
16075;SDS011;8142;48.242;11.644;2023-06-01T01:49:42;7.70;;;5.50;;
16075;SDS011;8142;48.242;11.644;2023-06-01T01:52:21;8.47;;;5.60;;
16075;SDS011;8142;48.242;11.644;2023-06-01T01:54:51;9.40;;;6.00;;
16075;SDS011;8142;48.242;11.644;2023-06-01T01:57:18;9.87;;;6.50;;
16075;SDS011;8142;48.242;11.644;2023-06-01T01:59:47;10.20;;;6.40;;
16075;SDS011;8142;48.242;11.644;2023-06-01T02:02:14;11.13;;;6.77;;
16075;SDS011;8142;48.242;11.644;2023-06-01T02:04:41;10.90;;;6.60;;
16075;SDS011;8142;48.242;11.644;2023-06-01T02:07:08;10.57;;;6.30;;
16075;SDS011;8142;48.242;11.644;2023-06-01T02:09:34;8.07;;;6.23;;
16075;SDS011;8142;48.242;11.644;2023-06-01T02:12:00;7.90;;;5.90;;
16075;SDS011;8142;48.242;11.644;2023-06-01T02:14:27;8.33;;;5.47;;
16075;SDS011;8142;48.242;11.644;2023-06-01T02:16:53;6.20;;;4.60;;
16075;SDS011;8142;48.242;11.644;2023-06-01T02:19:19;10.30;;;5.67;;
16075;SDS011;8142;48.242;11.644;2023-06-01T02:21:46;8.47;;;6.10;;
16075;SDS011;8142;48.242;11.644;2023-06-01T02:24:12;9.23;;;5.63;;
16075;SDS011;8142;48.242;11.644;2023-06-01T02:26:38;8.73;;;5.97;;
16075;SDS011;8142;48.242;11.644;2023-06-01T02:29:05;10.13;;;6.33;;
16075;SDS011;8142;48.242;11.644;2023-06-01T02:31:31;7.77;;;5.87;;
16075;SDS011;8142;48.242;11.644;2023-06-01T02:33:58;10.43;;;6.20;;
16075;SDS011;8142;48.242;11.644;2023-06-01T02:36:25;9.03;;;6.10;;
16075;SDS011;8142;48.242;11.644;2023-06-01T02:38:51;7.50;;;5.77;;
16075;SDS011;8142;48.242;11.644;2023-06-01T02:41:17;10.30;;;5.97;;
16075;SDS011;8142;48.242;11.644;2023-06-01T02:43:43;8.50;;;5.80;;
16075;SDS011;8142;48.242;11.644;2023-06-01T02:46:09;7.57;;;5.20;;
16075;SDS011;8142;48.242;11.644;2023-06-01T02:48:35;6.33;;;5.27;;
16075;SDS011;8142;48.242;11.644;2023-06-01T02:51:01;10.60;;;6.03;;
16075;SDS011;8142;48.242;11.644;2023-06-01T02:53:27;10.20;;;6.60;;
16075;SDS011;8142;48.242;11.644;2023-06-01T02:55:53;8.93;;;6.00;;
16075;SDS011;8142;48.242;11.644;2023-06-01T02:58:20;10.67;;;6.00;;
16075;SDS011;8142;48.242;11.644;2023-06-01T03:00:45;8.27;;;5.30;;
16075;SDS011;8142;48.242;11.644;2023-06-01T03:03:12;8.27;;;5.47;;
16075;SDS011;8142;48.242;11.644;2023-06-01T03:05:38;8.87;;;5.67;;
16075;SDS011;8142;48.242;11.644;2023-06-01T03:08:04;11.67;;;5.90;;
16075;SDS011;8142;48.242;11.644;2023-06-01T03:10:31;8.23;;;5.77;;
16075;SDS011;8142;48.242;11.644;2023-06-01T03:12:57;8.77;;;5.80;;
16075;SDS011;8142;48.242;11.644;2023-06-01T03:15:23;8.07;;;5.80;;
16075;SDS011;8142;48.242;11.644;2023-06-01T03:17:49;8.73;;;5.70;;
16075;SDS011;8142;48.242;11.644;2023-06-01T03:20:15;9.27;;;5.67;;
16075;SDS011;8142;48.242;11.644;2023-06-01T03:22:41;6.37;;;5.10;;
16075;SDS011;8142;48.242;11.644;2023-06-01T03:25:11;9.57;;;6.03;;
16075;SDS011;8142;48.242;11.644;2023-06-01T03:27:39;8.73;;;5.97;;
16075;SDS011;8142;48.242;11.644;2023-06-01T03:30:06;8.57;;;6.50;;
16075;SDS011;8142;48.242;11.644;2023-06-01T03:32:36;9.50;;;6.07;;
16075;SDS011;8142;48.242;11.644;2023-06-01T03:35:03;8.67;;;6.00;;
16075;SDS011;8142;48.242;11.644;2023-06-01T03:37:36;10.03;;;6.70;;
16075;SDS011;8142;48.242;11.644;2023-06-01T03:40:03;10.33;;;7.07;;
16075;SDS011;8142;48.242;11.644;2023-06-01T03:42:37;9.00;;;6.40;;
16075;SDS011;8142;48.242;11.644;2023-06-01T03:45:11;8.47;;;5.80;;
16075;SDS011;8142;48.242;11.644;2023-06-01T03:47:38;6.70;;;5.30;;
16075;SDS011;8142;48.242;11.644;2023-06-01T03:50:04;8.63;;;6.23;;
16075;SDS011;8142;48.242;11.644;2023-06-01T03:52:31;9.73;;;6.50;;
16075;SDS011;8142;48.242;11.644;2023-06-01T03:54:58;10.03;;;6.67;;
16075;SDS011;8142;48.242;11.644;2023-06-01T03:57:27;9.43;;;6.27;;
16075;SDS011;8142;48.242;11.644;2023-06-01T03:59:53;8.83;;;5.77;;
16075;SDS011;8142;48.242;11.644;2023-06-01T04:02:19;8.87;;;6.23;;
16075;SDS011;8142;48.242;11.644;2023-06-01T04:04:45;10.73;;;6.50;;
16075;SDS011;8142;48.242;11.644;2023-06-01T04:07:12;7.60;;;6.23;;
16075;SDS011;8142;48.242;11.644;2023-06-01T04:09:44;11.13;;;6.70;;
16075;SDS011;8142;48.242;11.644;2023-06-01T04:12:12;11.10;;;6.90;;
16075;SDS011;8142;48.242;11.644;2023-06-01T04:14:38;9.43;;;6.17;;
16075;SDS011;8142;48.242;11.644;2023-06-01T04:17:05;6.60;;;4.80;;
16075;SDS011;8142;48.242;11.644;2023-06-01T04:19:31;8.60;;;5.60;;
16075;SDS011;8142;48.242;11.644;2023-06-01T04:21:58;9.77;;;6.30;;
16075;SDS011;8142;48.242;11.644;2023-06-01T04:24:25;7.83;;;6.17;;
16075;SDS011;8142;48.242;11.644;2023-06-01T04:26:51;8.87;;;6.40;;
16075;SDS011;8142;48.242;11.644;2023-06-01T04:29:17;9.67;;;6.80;;
16075;SDS011;8142;48.242;11.644;2023-06-01T04:31:45;8.63;;;6.40;;
16075;SDS011;8142;48.242;11.644;2023-06-01T04:34:11;8.67;;;6.23;;
16075;SDS011;8142;48.242;11.644;2023-06-01T04:36:37;10.87;;;6.17;;
16075;SDS011;8142;48.242;11.644;2023-06-01T04:39:07;7.63;;;6.00;;
16075;SDS011;8142;48.242;11.644;2023-06-01T04:41:34;10.03;;;6.73;;
16075;SDS011;8142;48.242;11.644;2023-06-01T04:44:01;8.90;;;6.30;;
16075;SDS011;8142;48.242;11.644;2023-06-01T04:46:31;9.20;;;4.83;;
16075;SDS011;8142;48.242;11.644;2023-06-01T04:48:57;7.43;;;5.50;;
16075;SDS011;8142;48.242;11.644;2023-06-01T04:51:23;7.73;;;5.80;;
16075;SDS011;8142;48.242;11.644;2023-06-01T04:53:50;10.10;;;6.20;;
16075;SDS011;8142;48.242;11.644;2023-06-01T04:56:26;9.57;;;6.23;;
16075;SDS011;8142;48.242;11.644;2023-06-01T04:58:52;8.20;;;6.17;;
16075;SDS011;8142;48.242;11.644;2023-06-01T05:01:20;9.47;;;6.20;;
16075;SDS011;8142;48.242;11.644;2023-06-01T05:03:50;7.43;;;5.30;;
16075;SDS011;8142;48.242;11.644;2023-06-01T05:06:19;7.93;;;5.43;;
16075;SDS011;8142;48.242;11.644;2023-06-01T05:08:46;11.27;;;4.70;;
16075;SDS011;8142;48.242;11.644;2023-06-01T05:11:13;6.80;;;4.90;;
16075;SDS011;8142;48.242;11.644;2023-06-01T05:13:39;7.83;;;4.67;;
16075;SDS011;8142;48.242;11.644;2023-06-01T05:16:05;7.63;;;4.50;;
16075;SDS011;8142;48.242;11.644;2023-06-01T05:18:33;6.03;;;4.40;;
16075;SDS011;8142;48.242;11.644;2023-06-01T05:20:59;7.37;;;4.73;;
16075;SDS011;8142;48.242;11.644;2023-06-01T05:23:26;8.57;;;4.77;;
16075;SDS011;8142;48.242;11.644;2023-06-01T05:25:54;6.93;;;4.50;;
16075;SDS011;8142;48.242;11.644;2023-06-01T05:28:28;5.97;;;4.47;;
16075;SDS011;8142;48.242;11.644;2023-06-01T05:30:57;8.63;;;4.50;;
16075;SDS011;8142;48.242;11.644;2023-06-01T05:33:24;7.50;;;4.60;;
16075;SDS011;8142;48.242;11.644;2023-06-01T05:35:50;7.23;;;4.60;;
16075;SDS011;8142;48.242;11.644;2023-06-01T05:38:15;7.27;;;4.07;;
16075;SDS011;8142;48.242;11.644;2023-06-01T05:40:41;6.53;;;4.37;;
16075;SDS011;8142;48.242;11.644;2023-06-01T05:43:07;6.90;;;3.50;;
16075;SDS011;8142;48.242;11.644;2023-06-01T05:45:33;7.13;;;4.60;;
16075;SDS011;8142;48.242;11.644;2023-06-01T05:47:59;6.40;;;4.00;;
16075;SDS011;8142;48.242;11.644;2023-06-01T05:50:25;5.13;;;3.70;;
16075;SDS011;8142;48.242;11.644;2023-06-01T05:52:51;9.57;;;4.43;;
16075;SDS011;8142;48.242;11.644;2023-06-01T05:55:17;7.03;;;4.20;;
16075;SDS011;8142;48.242;11.644;2023-06-01T05:57:43;7.27;;;4.10;;
16075;SDS011;8142;48.242;11.644;2023-06-01T06:00:11;7.23;;;4.57;;
16075;SDS011;8142;48.242;11.644;2023-06-01T06:02:39;6.80;;;3.67;;
16075;SDS011;8142;48.242;11.644;2023-06-01T06:05:07;8.50;;;4.40;;
16075;SDS011;8142;48.242;11.644;2023-06-01T06:07:34;7.87;;;3.90;;
16075;SDS011;8142;48.242;11.644;2023-06-01T06:10:00;7.20;;;4.53;;
16075;SDS011;8142;48.242;11.644;2023-06-01T06:12:26;7.30;;;4.37;;
16075;SDS011;8142;48.242;11.644;2023-06-01T06:14:52;6.83;;;4.27;;
16075;SDS011;8142;48.242;11.644;2023-06-01T06:17:19;7.70;;;4.63;;
16075;SDS011;8142;48.242;11.644;2023-06-01T06:19:45;6.77;;;4.37;;
16075;SDS011;8142;48.242;11.644;2023-06-01T06:22:13;7.03;;;4.20;;
16075;SDS011;8142;48.242;11.644;2023-06-01T06:24:39;10.57;;;5.20;;
16075;SDS011;8142;48.242;11.644;2023-06-01T06:27:05;7.90;;;4.53;;
16075;SDS011;8142;48.242;11.644;2023-06-01T06:29:31;10.30;;;5.40;;
16075;SDS011;8142;48.242;11.644;2023-06-01T06:31:58;6.40;;;3.93;;
16075;SDS011;8142;48.242;11.644;2023-06-01T06:34:23;7.87;;;4.57;;
16075;SDS011;8142;48.242;11.644;2023-06-01T06:36:50;9.60;;;5.17;;
16075;SDS011;8142;48.242;11.644;2023-06-01T06:39:18;7.17;;;4.90;;
16075;SDS011;8142;48.242;11.644;2023-06-01T06:41:44;6.47;;;5.00;;
16075;SDS011;8142;48.242;11.644;2023-06-01T06:44:10;6.07;;;4.50;;
16075;SDS011;8142;48.242;11.644;2023-06-01T06:46:36;7.17;;;4.77;;
16075;SDS011;8142;48.242;11.644;2023-06-01T06:49:04;7.47;;;4.67;;
16075;SDS011;8142;48.242;11.644;2023-06-01T06:51:31;6.87;;;4.67;;
16075;SDS011;8142;48.242;11.644;2023-06-01T06:53:56;6.03;;;4.37;;
16075;SDS011;8142;48.242;11.644;2023-06-01T06:56:23;6.53;;;4.47;;
16075;SDS011;8142;48.242;11.644;2023-06-01T06:58:50;7.87;;;5.00;;
16075;SDS011;8142;48.242;11.644;2023-06-01T07:01:16;7.27;;;4.90;;
16075;SDS011;8142;48.242;11.644;2023-06-01T07:03:42;8.50;;;4.77;;
16075;SDS011;8142;48.242;11.644;2023-06-01T07:06:08;7.57;;;4.93;;
16075;SDS011;8142;48.242;11.644;2023-06-01T07:08:34;6.60;;;4.57;;
16075;SDS011;8142;48.242;11.644;2023-06-01T07:11:00;8.93;;;4.90;;
16075;SDS011;8142;48.242;11.644;2023-06-01T07:13:26;9.93;;;4.70;;
16075;SDS011;8142;48.242;11.644;2023-06-01T07:15:52;8.07;;;4.27;;
16075;SDS011;8142;48.242;11.644;2023-06-01T07:18:19;7.93;;;4.80;;
16075;SDS011;8142;48.242;11.644;2023-06-01T07:20:44;11.83;;;5.20;;
16075;SDS011;8142;48.242;11.644;2023-06-01T07:23:10;11.57;;;5.40;;
16075;SDS011;8142;48.242;11.644;2023-06-01T07:25:37;11.57;;;5.10;;
16075;SDS011;8142;48.242;11.644;2023-06-01T07:28:04;10.83;;;5.63;;
16075;SDS011;8142;48.242;11.644;2023-06-01T07:30:36;7.77;;;4.73;;
16075;SDS011;8142;48.242;11.644;2023-06-01T07:33:01;8.53;;;4.97;;
16075;SDS011;8142;48.242;11.644;2023-06-01T07:35:30;9.33;;;5.03;;
16075;SDS011;8142;48.242;11.644;2023-06-01T07:37:58;9.97;;;5.00;;
16075;SDS011;8142;48.242;11.644;2023-06-01T07:40:23;9.63;;;4.97;;
16075;SDS011;8142;48.242;11.644;2023-06-01T07:42:49;7.80;;;4.57;;
16075;SDS011;8142;48.242;11.644;2023-06-01T07:45:15;7.83;;;4.97;;
16075;SDS011;8142;48.242;11.644;2023-06-01T07:47:42;7.90;;;5.17;;
16075;SDS011;8142;48.242;11.644;2023-06-01T07:50:08;7.50;;;5.40;;
16075;SDS011;8142;48.242;11.644;2023-06-01T07:52:34;8.60;;;4.97;;
16075;SDS011;8142;48.242;11.644;2023-06-01T07:55:00;5.47;;;4.60;;
16075;SDS011;8142;48.242;11.644;2023-06-01T07:57:26;8.60;;;5.37;;
16075;SDS011;8142;48.242;11.644;2023-06-01T07:59:52;9.17;;;5.00;;
16075;SDS011;8142;48.242;11.644;2023-06-01T08:02:18;8.50;;;5.10;;
16075;SDS011;8142;48.242;11.644;2023-06-01T08:04:45;8.00;;;5.23;;
16075;SDS011;8142;48.242;11.644;2023-06-01T08:07:12;10.80;;;5.33;;
16075;SDS011;8142;48.242;11.644;2023-06-01T08:09:40;9.07;;;4.67;;
16075;SDS011;8142;48.242;11.644;2023-06-01T08:12:07;7.77;;;5.20;;
16075;SDS011;8142;48.242;11.644;2023-06-01T08:14:34;7.40;;;5.03;;
16075;SDS011;8142;48.242;11.644;2023-06-01T08:17:01;8.30;;;4.80;;
16075;SDS011;8142;48.242;11.644;2023-06-01T08:19:27;9.47;;;4.63;;
16075;SDS011;8142;48.242;11.644;2023-06-01T08:21:53;8.37;;;4.90;;
16075;SDS011;8142;48.242;11.644;2023-06-01T08:24:20;10.23;;;5.23;;
16075;SDS011;8142;48.242;11.644;2023-06-01T08:26:54;9.43;;;4.87;;
16075;SDS011;8142;48.242;11.644;2023-06-01T08:29:23;8.83;;;5.00;;
16075;SDS011;8142;48.242;11.644;2023-06-01T08:31:49;7.17;;;4.40;;
16075;SDS011;8142;48.242;11.644;2023-06-01T08:34:15;7.33;;;4.50;;
16075;SDS011;8142;48.242;11.644;2023-06-01T08:36:41;9.83;;;5.23;;
16075;SDS011;8142;48.242;11.644;2023-06-01T08:39:22;8.13;;;4.53;;
16075;SDS011;8142;48.242;11.644;2023-06-01T08:44:25;8.60;;;5.00;;
16075;SDS011;8142;48.242;11.644;2023-06-01T08:46:53;8.23;;;4.70;;
16075;SDS011;8142;48.242;11.644;2023-06-01T08:49:20;5.10;;;4.60;;
16075;SDS011;8142;48.242;11.644;2023-06-01T08:51:48;6.33;;;4.80;;
16075;SDS011;8142;48.242;11.644;2023-06-01T08:54:16;6.53;;;4.60;;
16075;SDS011;8142;48.242;11.644;2023-06-01T08:56:42;7.60;;;5.20;;
16075;SDS011;8142;48.242;11.644;2023-06-01T08:59:09;6.53;;;4.90;;
16075;SDS011;8142;48.242;11.644;2023-06-01T09:01:39;6.80;;;4.83;;
16075;SDS011;8142;48.242;11.644;2023-06-01T09:04:05;8.73;;;4.77;;
16075;SDS011;8142;48.242;11.644;2023-06-01T09:06:31;6.80;;;4.63;;
16075;SDS011;8142;48.242;11.644;2023-06-01T09:08:58;7.70;;;4.80;;
16075;SDS011;8142;48.242;11.644;2023-06-01T09:11:25;6.60;;;4.70;;
16075;SDS011;8142;48.242;11.644;2023-06-01T09:13:51;8.70;;;5.30;;
16075;SDS011;8142;48.242;11.644;2023-06-01T09:16:17;9.90;;;4.80;;
16075;SDS011;8142;48.242;11.644;2023-06-01T09:18:53;9.43;;;4.70;;
16075;SDS011;8142;48.242;11.644;2023-06-01T09:21:19;7.40;;;4.80;;
16075;SDS011;8142;48.242;11.644;2023-06-01T09:23:45;8.87;;;5.13;;
16075;SDS011;8142;48.242;11.644;2023-06-01T09:26:13;8.53;;;4.90;;
16075;SDS011;8142;48.242;11.644;2023-06-01T09:31:35;8.23;;;4.60;;
16075;SDS011;8142;48.242;11.644;2023-06-01T09:34:12;7.40;;;4.70;;
16075;SDS011;8142;48.242;11.644;2023-06-01T09:36:41;9.37;;;4.80;;
16075;SDS011;8142;48.242;11.644;2023-06-01T09:39:08;10.10;;;5.47;;
16075;SDS011;8142;48.242;11.644;2023-06-01T09:44:22;10.00;;;4.97;;
16075;SDS011;8142;48.242;11.644;2023-06-01T09:46:54;6.20;;;4.40;;
16075;SDS011;8142;48.242;11.644;2023-06-01T09:49:22;6.57;;;4.60;;
16075;SDS011;8142;48.242;11.644;2023-06-01T09:51:51;7.47;;;5.07;;
16075;SDS011;8142;48.242;11.644;2023-06-01T09:54:21;6.03;;;4.30;;
16075;SDS011;8142;48.242;11.644;2023-06-01T09:56:51;9.07;;;4.63;;
16075;SDS011;8142;48.242;11.644;2023-06-01T09:59:19;9.80;;;4.63;;
16075;SDS011;8142;48.242;11.644;2023-06-01T10:01:49;6.90;;;4.97;;
16075;SDS011;8142;48.242;11.644;2023-06-01T10:04:18;10.47;;;5.30;;
16075;SDS011;8142;48.242;11.644;2023-06-01T10:06:48;6.37;;;4.37;;
16075;SDS011;8142;48.242;11.644;2023-06-01T10:09:16;8.20;;;5.13;;
16075;SDS011;8142;48.242;11.644;2023-06-01T10:11:48;9.00;;;4.57;;
16075;SDS011;8142;48.242;11.644;2023-06-01T10:14:16;8.00;;;4.70;;
16075;SDS011;8142;48.242;11.644;2023-06-01T10:16:42;6.77;;;5.10;;
16075;SDS011;8142;48.242;11.644;2023-06-01T10:19:09;6.63;;;4.93;;
16075;SDS011;8142;48.242;11.644;2023-06-01T10:21:36;9.67;;;4.97;;
16075;SDS011;8142;48.242;11.644;2023-06-01T10:24:03;7.23;;;4.90;;
16075;SDS011;8142;48.242;11.644;2023-06-01T10:26:30;7.53;;;4.80;;
16075;SDS011;8142;48.242;11.644;2023-06-01T10:29:01;6.87;;;4.73;;
16075;SDS011;8142;48.242;11.644;2023-06-01T10:31:35;7.00;;;4.33;;
16075;SDS011;8142;48.242;11.644;2023-06-01T10:34:01;5.60;;;4.37;;
16075;SDS011;8142;48.242;11.644;2023-06-01T10:39:22;6.40;;;4.40;;
16075;SDS011;8142;48.242;11.644;2023-06-01T10:41:51;6.53;;;4.63;;
16075;SDS011;8142;48.242;11.644;2023-06-01T10:54:55;7.27;;;4.67;;
16075;SDS011;8142;48.242;11.644;2023-06-01T10:57:39;6.50;;;4.70;;
16075;SDS011;8142;48.242;11.644;2023-06-01T11:05:33;8.60;;;4.70;;
16075;SDS011;8142;48.242;11.644;2023-06-01T11:13:34;7.40;;;5.00;;
16075;SDS011;8142;48.242;11.644;2023-06-01T11:21:17;6.70;;;4.90;;
16075;SDS011;8142;48.242;11.644;2023-06-01T11:23:46;7.07;;;4.60;;
16075;SDS011;8142;48.242;11.644;2023-06-01T11:26:14;7.73;;;4.43;;
16075;SDS011;8142;48.242;11.644;2023-06-01T11:28:41;6.37;;;4.70;;
16075;SDS011;8142;48.242;11.644;2023-06-01T11:31:08;7.43;;;4.30;;
16075;SDS011;8142;48.242;11.644;2023-06-01T11:33:37;6.00;;;4.67;;
16075;SDS011;8142;48.242;11.644;2023-06-01T11:36:05;6.80;;;4.83;;
16075;SDS011;8142;48.242;11.644;2023-06-01T11:38:39;7.70;;;4.70;;
16075;SDS011;8142;48.242;11.644;2023-06-01T11:41:07;9.10;;;4.73;;
16075;SDS011;8142;48.242;11.644;2023-06-01T11:43:34;6.43;;;4.63;;
16075;SDS011;8142;48.242;11.644;2023-06-01T11:46:01;6.83;;;4.73;;
16075;SDS011;8142;48.242;11.644;2023-06-01T11:48:27;7.73;;;4.87;;
16075;SDS011;8142;48.242;11.644;2023-06-01T11:50:54;8.37;;;5.00;;
16075;SDS011;8142;48.242;11.644;2023-06-01T11:53:23;8.53;;;4.67;;
16075;SDS011;8142;48.242;11.644;2023-06-01T11:55:51;5.97;;;4.80;;
16075;SDS011;8142;48.242;11.644;2023-06-01T11:58:25;5.93;;;4.60;;
16075;SDS011;8142;48.242;11.644;2023-06-01T12:00:52;6.13;;;4.30;;
16075;SDS011;8142;48.242;11.644;2023-06-01T12:03:19;6.27;;;5.00;;
16075;SDS011;8142;48.242;11.644;2023-06-01T12:05:45;5.97;;;4.87;;
16075;SDS011;8142;48.242;11.644;2023-06-01T12:08:15;7.87;;;5.00;;
16075;SDS011;8142;48.242;11.644;2023-06-01T12:10:49;6.83;;;4.40;;
16075;SDS011;8142;48.242;11.644;2023-06-01T12:13:16;7.50;;;4.90;;
16075;SDS011;8142;48.242;11.644;2023-06-01T12:15:43;6.43;;;4.67;;
16075;SDS011;8142;48.242;11.644;2023-06-01T12:18:09;6.50;;;4.83;;
16075;SDS011;8142;48.242;11.644;2023-06-01T12:20:36;5.93;;;4.27;;
16075;SDS011;8142;48.242;11.644;2023-06-01T12:23:15;6.30;;;4.63;;
16075;SDS011;8142;48.242;11.644;2023-06-01T12:25:50;7.53;;;5.07;;
16075;SDS011;8142;48.242;11.644;2023-06-01T12:28:18;7.43;;;4.90;;
16075;SDS011;8142;48.242;11.644;2023-06-01T12:30:44;7.80;;;5.10;;
16075;SDS011;8142;48.242;11.644;2023-06-01T12:35:59;5.97;;;4.50;;
16075;SDS011;8142;48.242;11.644;2023-06-01T12:38:26;8.40;;;4.80;;
16075;SDS011;8142;48.242;11.644;2023-06-01T12:41:08;7.50;;;4.47;;
16075;SDS011;8142;48.242;11.644;2023-06-01T12:43:35;7.40;;;4.73;;
16075;SDS011;8142;48.242;11.644;2023-06-01T12:46:02;7.90;;;4.70;;
16075;SDS011;8142;48.242;11.644;2023-06-01T12:48:32;5.70;;;4.37;;
16075;SDS011;8142;48.242;11.644;2023-06-01T12:51:02;6.60;;;4.40;;
16075;SDS011;8142;48.242;11.644;2023-06-01T12:53:29;8.83;;;4.97;;
16075;SDS011;8142;48.242;11.644;2023-06-01T12:55:56;7.17;;;4.70;;
16075;SDS011;8142;48.242;11.644;2023-06-01T12:58:22;5.23;;;4.37;;
16075;SDS011;8142;48.242;11.644;2023-06-01T13:00:47;6.27;;;4.37;;
16075;SDS011;8142;48.242;11.644;2023-06-01T13:03:14;6.70;;;4.43;;
16075;SDS011;8142;48.242;11.644;2023-06-01T13:05:41;6.27;;;4.70;;
16075;SDS011;8142;48.242;11.644;2023-06-01T13:08:11;8.03;;;4.53;;
16075;SDS011;8142;48.242;11.644;2023-06-01T13:10:38;8.13;;;4.50;;
16075;SDS011;8142;48.242;11.644;2023-06-01T13:13:04;6.50;;;4.50;;
16075;SDS011;8142;48.242;11.644;2023-06-01T13:15:29;9.60;;;4.93;;
16075;SDS011;8142;48.242;11.644;2023-06-01T13:17:55;6.33;;;4.63;;
16075;SDS011;8142;48.242;11.644;2023-06-01T13:20:21;7.50;;;4.70;;
16075;SDS011;8142;48.242;11.644;2023-06-01T13:22:47;7.33;;;4.70;;
16075;SDS011;8142;48.242;11.644;2023-06-01T13:25:13;6.93;;;4.20;;
16075;SDS011;8142;48.242;11.644;2023-06-01T13:27:39;7.17;;;4.43;;
16075;SDS011;8142;48.242;11.644;2023-06-01T13:30:05;6.00;;;4.30;;
16075;SDS011;8142;48.242;11.644;2023-06-01T13:32:32;5.57;;;4.23;;
16075;SDS011;8142;48.242;11.644;2023-06-01T13:34:58;6.03;;;4.50;;
16075;SDS011;8142;48.242;11.644;2023-06-01T13:37:24;5.50;;;4.50;;
16075;SDS011;8142;48.242;11.644;2023-06-01T13:39:50;7.40;;;4.40;;
16075;SDS011;8142;48.242;11.644;2023-06-01T13:42:16;5.60;;;4.63;;
16075;SDS011;8142;48.242;11.644;2023-06-01T13:44:42;7.67;;;4.40;;
16075;SDS011;8142;48.242;11.644;2023-06-01T13:47:11;7.07;;;4.47;;
16075;SDS011;8142;48.242;11.644;2023-06-01T13:49:43;6.33;;;4.30;;
16075;SDS011;8142;48.242;11.644;2023-06-01T13:52:17;8.00;;;4.70;;
16075;SDS011;8142;48.242;11.644;2023-06-01T13:54:43;6.47;;;4.30;;
16075;SDS011;8142;48.242;11.644;2023-06-01T13:57:12;6.47;;;4.37;;
16075;SDS011;8142;48.242;11.644;2023-06-01T13:59:38;5.73;;;3.90;;
16075;SDS011;8142;48.242;11.644;2023-06-01T14:02:04;6.43;;;4.47;;
16075;SDS011;8142;48.242;11.644;2023-06-01T14:04:30;7.53;;;4.40;;
16075;SDS011;8142;48.242;11.644;2023-06-01T14:06:56;6.60;;;4.47;;
16075;SDS011;8142;48.242;11.644;2023-06-01T14:09:23;6.10;;;4.30;;
16075;SDS011;8142;48.242;11.644;2023-06-01T14:11:50;7.73;;;4.50;;
16075;SDS011;8142;48.242;11.644;2023-06-01T14:14:16;7.97;;;4.70;;
16075;SDS011;8142;48.242;11.644;2023-06-01T14:16:42;10.43;;;4.60;;
16075;SDS011;8142;48.242;11.644;2023-06-01T14:19:08;6.90;;;4.20;;
16075;SDS011;8142;48.242;11.644;2023-06-01T14:21:34;6.10;;;4.33;;
16075;SDS011;8142;48.242;11.644;2023-06-01T14:24:01;6.47;;;4.20;;
16075;SDS011;8142;48.242;11.644;2023-06-01T14:26:27;6.37;;;4.37;;
16075;SDS011;8142;48.242;11.644;2023-06-01T14:28:53;6.63;;;4.53;;
16075;SDS011;8142;48.242;11.644;2023-06-01T14:31:19;6.00;;;4.17;;
16075;SDS011;8142;48.242;11.644;2023-06-01T14:33:46;5.20;;;4.30;;
16075;SDS011;8142;48.242;11.644;2023-06-01T14:36:12;6.77;;;4.30;;
16075;SDS011;8142;48.242;11.644;2023-06-01T14:38:38;6.67;;;4.40;;
16075;SDS011;8142;48.242;11.644;2023-06-01T14:41:07;5.97;;;4.20;;
16075;SDS011;8142;48.242;11.644;2023-06-01T14:43:33;6.00;;;3.80;;
16075;SDS011;8142;48.242;11.644;2023-06-01T14:46:05;5.43;;;4.07;;
16075;SDS011;8142;48.242;11.644;2023-06-01T14:48:31;5.60;;;4.20;;
16075;SDS011;8142;48.242;11.644;2023-06-01T14:50:57;5.00;;;3.93;;
16075;SDS011;8142;48.242;11.644;2023-06-01T14:53:23;6.10;;;4.30;;
16075;SDS011;8142;48.242;11.644;2023-06-01T14:55:49;5.23;;;4.23;;
16075;SDS011;8142;48.242;11.644;2023-06-01T14:58:15;5.87;;;4.23;;
16075;SDS011;8142;48.242;11.644;2023-06-01T15:00:41;6.50;;;3.90;;
16075;SDS011;8142;48.242;11.644;2023-06-01T15:03:07;5.97;;;4.40;;
16075;SDS011;8142;48.242;11.644;2023-06-01T15:05:33;7.40;;;4.47;;
16075;SDS011;8142;48.242;11.644;2023-06-01T15:07:59;6.70;;;4.37;;
16075;SDS011;8142;48.242;11.644;2023-06-01T15:10:25;5.33;;;4.20;;
16075;SDS011;8142;48.242;11.644;2023-06-01T15:12:51;6.53;;;4.00;;
16075;SDS011;8142;48.242;11.644;2023-06-01T15:15:17;4.77;;;3.93;;
16075;SDS011;8142;48.242;11.644;2023-06-01T15:17:43;5.77;;;4.17;;
16075;SDS011;8142;48.242;11.644;2023-06-01T15:20:10;7.33;;;4.30;;
16075;SDS011;8142;48.242;11.644;2023-06-01T15:22:36;6.43;;;3.90;;
16075;SDS011;8142;48.242;11.644;2023-06-01T15:25:02;5.80;;;3.70;;
16075;SDS011;8142;48.242;11.644;2023-06-01T15:27:28;6.53;;;4.20;;
16075;SDS011;8142;48.242;11.644;2023-06-01T15:29:54;5.70;;;4.30;;
16075;SDS011;8142;48.242;11.644;2023-06-01T15:32:20;6.87;;;4.40;;
16075;SDS011;8142;48.242;11.644;2023-06-01T15:34:46;5.53;;;3.90;;
16075;SDS011;8142;48.242;11.644;2023-06-01T15:37:12;5.93;;;3.97;;
16075;SDS011;8142;48.242;11.644;2023-06-01T15:39:38;6.33;;;3.93;;
16075;SDS011;8142;48.242;11.644;2023-06-01T15:42:05;5.90;;;4.10;;